sensor_id;sensor_type;location;lat;lon;timestamp;P1;durP1;ratioP1;P2;durP2;ratioP2
6117;SDS011;3089;48.202;11.510;2022-07-18T00:02:06;6.20;;;2.70;;
6117;SDS011;3089;48.202;11.510;2022-07-18T00:04:36;5.17;;;2.60;;
6117;SDS011;3089;48.202;11.510;2022-07-18T00:07:04;4.33;;;2.40;;
6117;SDS011;3089;48.202;11.510;2022-07-18T00:09:32;8.10;;;2.70;;
6117;SDS011;3089;48.202;11.510;2022-07-18T00:12:01;7.27;;;2.50;;
6117;SDS011;3089;48.202;11.510;2022-07-18T00:14:30;7.13;;;2.63;;
6117;SDS011;3089;48.202;11.510;2022-07-18T00:16:58;6.90;;;2.40;;
6117;SDS011;3089;48.202;11.510;2022-07-18T00:19:26;4.50;;;2.20;;
6117;SDS011;3089;48.202;11.510;2022-07-18T00:21:55;6.43;;;2.40;;
6117;SDS011;3089;48.202;11.510;2022-07-18T00:24:23;5.40;;;2.10;;
6117;SDS011;3089;48.202;11.510;2022-07-18T00:26:51;5.10;;;2.50;;
6117;SDS011;3089;48.202;11.510;2022-07-18T00:29:19;6.20;;;3.17;;
6117;SDS011;3089;48.202;11.510;2022-07-18T00:31:47;4.60;;;2.00;;
6117;SDS011;3089;48.202;11.510;2022-07-18T00:34:15;7.73;;;2.70;;
6117;SDS011;3089;48.202;11.510;2022-07-18T00:36:43;5.60;;;2.90;;
6117;SDS011;3089;48.202;11.510;2022-07-18T00:39:12;4.73;;;2.40;;
6117;SDS011;3089;48.202;11.510;2022-07-18T00:41:44;5.40;;;2.67;;
6117;SDS011;3089;48.202;11.510;2022-07-18T00:44:15;7.60;;;2.60;;
6117;SDS011;3089;48.202;11.510;2022-07-18T00:46:44;6.17;;;2.40;;
6117;SDS011;3089;48.202;11.510;2022-07-18T00:49:12;8.30;;;3.10;;
6117;SDS011;3089;48.202;11.510;2022-07-18T00:51:40;13.37;;;3.00;;
6117;SDS011;3089;48.202;11.510;2022-07-18T00:54:08;5.23;;;2.70;;
6117;SDS011;3089;48.202;11.510;2022-07-18T00:56:38;4.57;;;2.57;;
6117;SDS011;3089;48.202;11.510;2022-07-18T00:59:06;6.60;;;2.83;;
6117;SDS011;3089;48.202;11.510;2022-07-18T01:01:34;5.80;;;3.07;;
6117;SDS011;3089;48.202;11.510;2022-07-18T01:04:13;8.07;;;2.80;;
6117;SDS011;3089;48.202;11.510;2022-07-18T01:06:43;5.77;;;2.40;;
6117;SDS011;3089;48.202;11.510;2022-07-18T01:09:11;5.73;;;2.40;;
6117;SDS011;3089;48.202;11.510;2022-07-18T01:11:41;6.00;;;2.80;;
6117;SDS011;3089;48.202;11.510;2022-07-18T01:14:10;5.90;;;3.10;;
6117;SDS011;3089;48.202;11.510;2022-07-18T01:16:39;5.70;;;3.00;;
6117;SDS011;3089;48.202;11.510;2022-07-18T01:19:07;6.67;;;2.53;;
6117;SDS011;3089;48.202;11.510;2022-07-18T01:21:38;6.63;;;3.00;;
6117;SDS011;3089;48.202;11.510;2022-07-18T01:24:06;6.10;;;2.83;;
6117;SDS011;3089;48.202;11.510;2022-07-18T01:26:34;5.80;;;2.37;;
6117;SDS011;3089;48.202;11.510;2022-07-18T01:29:03;5.80;;;3.00;;
6117;SDS011;3089;48.202;11.510;2022-07-18T01:31:31;6.50;;;2.80;;
6117;SDS011;3089;48.202;11.510;2022-07-18T01:34:00;5.93;;;2.80;;
6117;SDS011;3089;48.202;11.510;2022-07-18T01:36:29;6.73;;;2.80;;
6117;SDS011;3089;48.202;11.510;2022-07-18T01:38:59;5.20;;;2.53;;
6117;SDS011;3089;48.202;11.510;2022-07-18T01:41:27;5.07;;;2.90;;
6117;SDS011;3089;48.202;11.510;2022-07-18T01:43:54;6.10;;;2.87;;
6117;SDS011;3089;48.202;11.510;2022-07-18T01:46:22;7.00;;;3.30;;
6117;SDS011;3089;48.202;11.510;2022-07-18T01:48:50;5.47;;;2.87;;
6117;SDS011;3089;48.202;11.510;2022-07-18T01:51:18;6.80;;;3.47;;
6117;SDS011;3089;48.202;11.510;2022-07-18T01:53:54;7.83;;;2.60;;
6117;SDS011;3089;48.202;11.510;2022-07-18T01:56:26;7.90;;;3.07;;
6117;SDS011;3089;48.202;11.510;2022-07-18T01:58:55;5.80;;;2.80;;
6117;SDS011;3089;48.202;11.510;2022-07-18T02:01:23;4.20;;;2.33;;
6117;SDS011;3089;48.202;11.510;2022-07-18T02:03:51;5.13;;;2.53;;
6117;SDS011;3089;48.202;11.510;2022-07-18T02:06:19;6.63;;;3.00;;
6117;SDS011;3089;48.202;11.510;2022-07-18T02:08:47;5.50;;;2.97;;
6117;SDS011;3089;48.202;11.510;2022-07-18T02:11:15;5.20;;;2.70;;
6117;SDS011;3089;48.202;11.510;2022-07-18T02:13:44;5.23;;;2.90;;
6117;SDS011;3089;48.202;11.510;2022-07-18T02:16:12;4.17;;;2.63;;
6117;SDS011;3089;48.202;11.510;2022-07-18T02:18:40;4.80;;;2.67;;
6117;SDS011;3089;48.202;11.510;2022-07-18T02:21:09;5.63;;;2.90;;
6117;SDS011;3089;48.202;11.510;2022-07-18T02:23:37;5.03;;;2.50;;
6117;SDS011;3089;48.202;11.510;2022-07-18T02:26:05;6.17;;;2.60;;
6117;SDS011;3089;48.202;11.510;2022-07-18T02:28:33;5.53;;;2.57;;
6117;SDS011;3089;48.202;11.510;2022-07-18T02:31:05;5.27;;;2.57;;
6117;SDS011;3089;48.202;11.510;2022-07-18T02:33:33;5.77;;;2.77;;
6117;SDS011;3089;48.202;11.510;2022-07-18T02:36:01;5.70;;;2.77;;
6117;SDS011;3089;48.202;11.510;2022-07-18T02:38:29;5.30;;;2.60;;
6117;SDS011;3089;48.202;11.510;2022-07-18T02:40:57;6.27;;;3.30;;
6117;SDS011;3089;48.202;11.510;2022-07-18T02:43:25;4.50;;;2.67;;
6117;SDS011;3089;48.202;11.510;2022-07-18T02:45:53;9.93;;;2.87;;
6117;SDS011;3089;48.202;11.510;2022-07-18T02:48:22;5.30;;;2.70;;
6117;SDS011;3089;48.202;11.510;2022-07-18T02:50:50;4.73;;;2.50;;
6117;SDS011;3089;48.202;11.510;2022-07-18T02:53:18;8.90;;;2.60;;
6117;SDS011;3089;48.202;11.510;2022-07-18T02:55:49;4.47;;;2.40;;
6117;SDS011;3089;48.202;11.510;2022-07-18T02:58:17;4.30;;;2.13;;
6117;SDS011;3089;48.202;11.510;2022-07-18T03:00:46;5.43;;;2.40;;
6117;SDS011;3089;48.202;11.510;2022-07-18T03:03:14;4.57;;;2.10;;
6117;SDS011;3089;48.202;11.510;2022-07-18T03:05:43;4.73;;;2.50;;
6117;SDS011;3089;48.202;11.510;2022-07-18T03:08:11;4.60;;;2.57;;
6117;SDS011;3089;48.202;11.510;2022-07-18T03:10:39;5.20;;;2.87;;
6117;SDS011;3089;48.202;11.510;2022-07-18T03:13:07;6.27;;;3.00;;
6117;SDS011;3089;48.202;11.510;2022-07-18T03:15:36;5.10;;;2.80;;
6117;SDS011;3089;48.202;11.510;2022-07-18T03:18:04;5.27;;;2.80;;
6117;SDS011;3089;48.202;11.510;2022-07-18T03:20:32;5.00;;;2.50;;
6117;SDS011;3089;48.202;11.510;2022-07-18T03:23:04;6.13;;;2.70;;
6117;SDS011;3089;48.202;11.510;2022-07-18T03:25:32;4.83;;;2.57;;
6117;SDS011;3089;48.202;11.510;2022-07-18T03:28:00;7.10;;;3.00;;
6117;SDS011;3089;48.202;11.510;2022-07-18T03:30:28;4.30;;;2.20;;
6117;SDS011;3089;48.202;11.510;2022-07-18T03:32:56;6.97;;;3.30;;
6117;SDS011;3089;48.202;11.510;2022-07-18T03:35:31;5.30;;;2.97;;
6117;SDS011;3089;48.202;11.510;2022-07-18T03:37:59;4.00;;;2.20;;
6117;SDS011;3089;48.202;11.510;2022-07-18T03:40:28;4.90;;;2.63;;
6117;SDS011;3089;48.202;11.510;2022-07-18T03:42:56;5.13;;;3.10;;
6117;SDS011;3089;48.202;11.510;2022-07-18T03:45:23;5.30;;;2.63;;
6117;SDS011;3089;48.202;11.510;2022-07-18T03:47:52;5.60;;;2.90;;
6117;SDS011;3089;48.202;11.510;2022-07-18T03:50:21;11.10;;;3.13;;
6117;SDS011;3089;48.202;11.510;2022-07-18T03:52:49;5.27;;;2.67;;
6117;SDS011;3089;48.202;11.510;2022-07-18T03:55:17;8.07;;;2.80;;
6117;SDS011;3089;48.202;11.510;2022-07-18T03:57:46;4.10;;;2.40;;
6117;SDS011;3089;48.202;11.510;2022-07-18T04:00:14;5.67;;;2.90;;
6117;SDS011;3089;48.202;11.510;2022-07-18T04:02:43;5.27;;;2.97;;
6117;SDS011;3089;48.202;11.510;2022-07-18T04:05:12;5.17;;;2.57;;
6117;SDS011;3089;48.202;11.510;2022-07-18T04:07:42;8.40;;;2.83;;
6117;SDS011;3089;48.202;11.510;2022-07-18T04:10:10;6.37;;;2.90;;
6117;SDS011;3089;48.202;11.510;2022-07-18T04:12:43;6.30;;;3.10;;
6117;SDS011;3089;48.202;11.510;2022-07-18T04:15:13;5.80;;;2.80;;
6117;SDS011;3089;48.202;11.510;2022-07-18T04:17:41;5.70;;;2.57;;
6117;SDS011;3089;48.202;11.510;2022-07-18T04:20:10;5.63;;;2.73;;
6117;SDS011;3089;48.202;11.510;2022-07-18T04:22:43;6.17;;;2.63;;
6117;SDS011;3089;48.202;11.510;2022-07-18T04:25:15;6.30;;;2.80;;
6117;SDS011;3089;48.202;11.510;2022-07-18T04:27:44;5.93;;;2.87;;
6117;SDS011;3089;48.202;11.510;2022-07-18T04:30:14;6.73;;;3.33;;
6117;SDS011;3089;48.202;11.510;2022-07-18T04:32:44;6.87;;;3.60;;
6117;SDS011;3089;48.202;11.510;2022-07-18T04:35:18;5.20;;;3.00;;
6117;SDS011;3089;48.202;11.510;2022-07-18T04:37:47;5.40;;;2.50;;
6117;SDS011;3089;48.202;11.510;2022-07-18T04:40:15;5.27;;;3.20;;
6117;SDS011;3089;48.202;11.510;2022-07-18T04:42:43;6.37;;;2.77;;
6117;SDS011;3089;48.202;11.510;2022-07-18T04:45:11;7.47;;;3.20;;
6117;SDS011;3089;48.202;11.510;2022-07-18T04:47:40;5.80;;;2.80;;
6117;SDS011;3089;48.202;11.510;2022-07-18T04:50:08;6.03;;;3.17;;
6117;SDS011;3089;48.202;11.510;2022-07-18T04:52:37;4.73;;;2.50;;
6117;SDS011;3089;48.202;11.510;2022-07-18T04:55:06;4.43;;;2.63;;
6117;SDS011;3089;48.202;11.510;2022-07-18T04:57:36;6.83;;;3.27;;
6117;SDS011;3089;48.202;11.510;2022-07-18T05:00:05;6.00;;;3.10;;
6117;SDS011;3089;48.202;11.510;2022-07-18T05:02:38;7.67;;;3.73;;
6117;SDS011;3089;48.202;11.510;2022-07-18T05:05:08;6.90;;;3.00;;
6117;SDS011;3089;48.202;11.510;2022-07-18T05:07:38;7.90;;;3.20;;
6117;SDS011;3089;48.202;11.510;2022-07-18T05:10:07;5.80;;;3.37;;
6117;SDS011;3089;48.202;11.510;2022-07-18T05:12:37;4.43;;;2.77;;
6117;SDS011;3089;48.202;11.510;2022-07-18T05:15:06;6.50;;;3.10;;
6117;SDS011;3089;48.202;11.510;2022-07-18T05:17:35;6.60;;;3.23;;
6117;SDS011;3089;48.202;11.510;2022-07-18T05:20:05;7.77;;;3.53;;
6117;SDS011;3089;48.202;11.510;2022-07-18T05:22:35;5.67;;;2.80;;
6117;SDS011;3089;48.202;11.510;2022-07-18T05:25:04;8.80;;;2.87;;
6117;SDS011;3089;48.202;11.510;2022-07-18T05:27:33;8.27;;;2.90;;
6117;SDS011;3089;48.202;11.510;2022-07-18T05:30:01;6.00;;;2.73;;
6117;SDS011;3089;48.202;11.510;2022-07-18T05:32:31;8.77;;;3.20;;
6117;SDS011;3089;48.202;11.510;2022-07-18T05:34:58;6.53;;;3.10;;
6117;SDS011;3089;48.202;11.510;2022-07-18T05:37:28;9.23;;;3.63;;
6117;SDS011;3089;48.202;11.510;2022-07-18T05:39:56;14.73;;;3.20;;
6117;SDS011;3089;48.202;11.510;2022-07-18T05:42:24;7.53;;;3.20;;
6117;SDS011;3089;48.202;11.510;2022-07-18T05:45:11;14.70;;;4.07;;
6117;SDS011;3089;48.202;11.510;2022-07-18T05:47:39;11.30;;;2.97;;
6117;SDS011;3089;48.202;11.510;2022-07-18T05:50:08;13.63;;;2.93;;
6117;SDS011;3089;48.202;11.510;2022-07-18T05:52:37;13.40;;;2.90;;
6117;SDS011;3089;48.202;11.510;2022-07-18T05:55:06;16.20;;;3.60;;
6117;SDS011;3089;48.202;11.510;2022-07-18T05:57:34;16.87;;;3.10;;
6117;SDS011;3089;48.202;11.510;2022-07-18T06:00:02;12.00;;;4.30;;
6117;SDS011;3089;48.202;11.510;2022-07-18T06:02:31;16.53;;;3.33;;
6117;SDS011;3089;48.202;11.510;2022-07-18T06:04:59;8.30;;;3.23;;
6117;SDS011;3089;48.202;11.510;2022-07-18T06:07:48;7.47;;;2.77;;
6117;SDS011;3089;48.202;11.510;2022-07-18T06:10:16;8.70;;;2.90;;
6117;SDS011;3089;48.202;11.510;2022-07-18T06:12:44;8.70;;;3.33;;
6117;SDS011;3089;48.202;11.510;2022-07-18T06:15:13;5.97;;;3.10;;
6117;SDS011;3089;48.202;11.510;2022-07-18T06:17:41;11.20;;;3.10;;
6117;SDS011;3089;48.202;11.510;2022-07-18T06:20:10;7.70;;;3.20;;
6117;SDS011;3089;48.202;11.510;2022-07-18T06:22:38;8.00;;;3.43;;
6117;SDS011;3089;48.202;11.510;2022-07-18T06:25:08;10.97;;;3.33;;
6117;SDS011;3089;48.202;11.510;2022-07-18T06:27:36;6.70;;;2.53;;
6117;SDS011;3089;48.202;11.510;2022-07-18T06:30:05;7.60;;;2.83;;
6117;SDS011;3089;48.202;11.510;2022-07-18T06:32:35;9.00;;;3.10;;
6117;SDS011;3089;48.202;11.510;2022-07-18T06:35:04;10.17;;;3.63;;
6117;SDS011;3089;48.202;11.510;2022-07-18T06:37:32;10.17;;;2.80;;
6117;SDS011;3089;48.202;11.510;2022-07-18T06:40:00;9.40;;;2.90;;
6117;SDS011;3089;48.202;11.510;2022-07-18T06:42:30;11.53;;;2.90;;
6117;SDS011;3089;48.202;11.510;2022-07-18T06:45:00;8.00;;;4.67;;
6117;SDS011;3089;48.202;11.510;2022-07-18T06:47:36;10.40;;;2.70;;
6117;SDS011;3089;48.202;11.510;2022-07-18T06:50:04;5.33;;;2.53;;
6117;SDS011;3089;48.202;11.510;2022-07-18T06:52:32;6.63;;;2.13;;
6117;SDS011;3089;48.202;11.510;2022-07-18T06:55:00;4.93;;;2.50;;
6117;SDS011;3089;48.202;11.510;2022-07-18T06:57:28;5.50;;;2.27;;
6117;SDS011;3089;48.202;11.510;2022-07-18T06:59:58;9.53;;;2.87;;
6117;SDS011;3089;48.202;11.510;2022-07-18T07:02:25;7.07;;;3.17;;
6117;SDS011;3089;48.202;11.510;2022-07-18T07:04:53;4.60;;;2.70;;
6117;SDS011;3089;48.202;11.510;2022-07-18T07:07:21;4.60;;;2.10;;
6117;SDS011;3089;48.202;11.510;2022-07-18T07:09:49;7.60;;;2.40;;
6117;SDS011;3089;48.202;11.510;2022-07-18T07:12:17;4.87;;;2.23;;
6117;SDS011;3089;48.202;11.510;2022-07-18T07:14:46;8.10;;;2.30;;
6117;SDS011;3089;48.202;11.510;2022-07-18T07:17:14;7.60;;;2.97;;
6117;SDS011;3089;48.202;11.510;2022-07-18T07:19:42;4.47;;;2.60;;
6117;SDS011;3089;48.202;11.510;2022-07-18T07:22:10;5.80;;;3.00;;
6117;SDS011;3089;48.202;11.510;2022-07-18T07:24:38;8.80;;;2.30;;
6117;SDS011;3089;48.202;11.510;2022-07-18T07:27:06;9.17;;;2.83;;
6117;SDS011;3089;48.202;11.510;2022-07-18T07:29:34;9.90;;;2.70;;
6117;SDS011;3089;48.202;11.510;2022-07-18T07:32:03;7.17;;;3.70;;
6117;SDS011;3089;48.202;11.510;2022-07-18T07:34:32;6.30;;;2.70;;
6117;SDS011;3089;48.202;11.510;2022-07-18T07:37:00;11.03;;;3.33;;
6117;SDS011;3089;48.202;11.510;2022-07-18T07:39:28;9.73;;;3.40;;
6117;SDS011;3089;48.202;11.510;2022-07-18T07:41:56;7.40;;;2.90;;
6117;SDS011;3089;48.202;11.510;2022-07-18T07:44:30;6.47;;;2.77;;
6117;SDS011;3089;48.202;11.510;2022-07-18T07:46:58;6.90;;;2.77;;
6117;SDS011;3089;48.202;11.510;2022-07-18T07:49:28;6.80;;;2.80;;
6117;SDS011;3089;48.202;11.510;2022-07-18T07:51:59;4.13;;;2.50;;
6117;SDS011;3089;48.202;11.510;2022-07-18T07:54:27;9.07;;;2.87;;
6117;SDS011;3089;48.202;11.510;2022-07-18T07:56:55;6.90;;;2.80;;
6117;SDS011;3089;48.202;11.510;2022-07-18T07:59:23;5.73;;;2.37;;
6117;SDS011;3089;48.202;11.510;2022-07-18T08:01:51;4.47;;;2.53;;
6117;SDS011;3089;48.202;11.510;2022-07-18T08:04:19;7.00;;;2.47;;
6117;SDS011;3089;48.202;11.510;2022-07-18T08:06:48;10.33;;;2.23;;
6117;SDS011;3089;48.202;11.510;2022-07-18T08:09:16;5.67;;;2.40;;
6117;SDS011;3089;48.202;11.510;2022-07-18T08:11:44;8.20;;;2.40;;
6117;SDS011;3089;48.202;11.510;2022-07-18T08:14:12;7.47;;;2.40;;
6117;SDS011;3089;48.202;11.510;2022-07-18T08:16:40;6.63;;;2.37;;
6117;SDS011;3089;48.202;11.510;2022-07-18T08:19:08;3.70;;;2.10;;
6117;SDS011;3089;48.202;11.510;2022-07-18T08:21:36;5.37;;;2.00;;
6117;SDS011;3089;48.202;11.510;2022-07-18T08:24:05;4.60;;;1.87;;
6117;SDS011;3089;48.202;11.510;2022-07-18T08:26:33;6.80;;;2.30;;
6117;SDS011;3089;48.202;11.510;2022-07-18T08:29:05;3.63;;;1.70;;
6117;SDS011;3089;48.202;11.510;2022-07-18T08:31:33;4.47;;;1.63;;
6117;SDS011;3089;48.202;11.510;2022-07-18T08:34:03;4.60;;;1.87;;
6117;SDS011;3089;48.202;11.510;2022-07-18T08:36:30;7.70;;;1.83;;
6117;SDS011;3089;48.202;11.510;2022-07-18T08:39:06;3.97;;;1.80;;
6117;SDS011;3089;48.202;11.510;2022-07-18T08:41:33;3.53;;;1.33;;
6117;SDS011;3089;48.202;11.510;2022-07-18T08:44:04;3.87;;;1.80;;
6117;SDS011;3089;48.202;11.510;2022-07-18T08:46:35;4.20;;;2.57;;
6117;SDS011;3089;48.202;11.510;2022-07-18T08:49:06;8.37;;;1.90;;
6117;SDS011;3089;48.202;11.510;2022-07-18T08:51:34;5.53;;;1.60;;
6117;SDS011;3089;48.202;11.510;2022-07-18T08:54:02;5.07;;;1.53;;
6117;SDS011;3089;48.202;11.510;2022-07-18T08:56:32;3.10;;;1.23;;
6117;SDS011;3089;48.202;11.510;2022-07-18T08:58:59;4.57;;;2.00;;
6117;SDS011;3089;48.202;11.510;2022-07-18T09:01:29;4.40;;;1.27;;
6117;SDS011;3089;48.202;11.510;2022-07-18T09:03:57;3.50;;;1.17;;
6117;SDS011;3089;48.202;11.510;2022-07-18T09:06:46;5.73;;;1.70;;
6117;SDS011;3089;48.202;11.510;2022-07-18T09:09:16;4.00;;;1.20;;
6117;SDS011;3089;48.202;11.510;2022-07-18T09:11:53;14.20;;;2.03;;
6117;SDS011;3089;48.202;11.510;2022-07-18T09:14:29;4.30;;;1.60;;
6117;SDS011;3089;48.202;11.510;2022-07-18T09:16:59;3.17;;;1.20;;
6117;SDS011;3089;48.202;11.510;2022-07-18T09:19:32;3.50;;;1.20;;
6117;SDS011;3089;48.202;11.510;2022-07-18T09:22:14;3.27;;;1.30;;
6117;SDS011;3089;48.202;11.510;2022-07-18T09:24:50;3.50;;;1.37;;
6117;SDS011;3089;48.202;11.510;2022-07-18T09:27:24;4.73;;;1.37;;
6117;SDS011;3089;48.202;11.510;2022-07-18T09:32:48;5.93;;;1.30;;
6117;SDS011;3089;48.202;11.510;2022-07-18T09:35:18;3.70;;;1.40;;
6117;SDS011;3089;48.202;11.510;2022-07-18T09:37:52;6.63;;;1.67;;
6117;SDS011;3089;48.202;11.510;2022-07-18T09:40:32;5.13;;;1.33;;
6117;SDS011;3089;48.202;11.510;2022-07-18T09:43:03;3.53;;;1.13;;
6117;SDS011;3089;48.202;11.510;2022-07-18T09:45:32;5.67;;;1.30;;
6117;SDS011;3089;48.202;11.510;2022-07-18T09:48:02;3.33;;;1.20;;
6117;SDS011;3089;48.202;11.510;2022-07-18T09:50:32;3.30;;;1.30;;
6117;SDS011;3089;48.202;11.510;2022-07-18T09:53:02;5.43;;;1.30;;
6117;SDS011;3089;48.202;11.510;2022-07-18T09:55:52;5.27;;;1.43;;
6117;SDS011;3089;48.202;11.510;2022-07-18T09:58:23;6.40;;;1.27;;
6117;SDS011;3089;48.202;11.510;2022-07-18T10:00:53;4.30;;;1.20;;
6117;SDS011;3089;48.202;11.510;2022-07-18T10:03:22;3.53;;;1.20;;
6117;SDS011;3089;48.202;11.510;2022-07-18T10:05:52;6.20;;;1.43;;
6117;SDS011;3089;48.202;11.510;2022-07-18T10:08:21;3.50;;;1.40;;
6117;SDS011;3089;48.202;11.510;2022-07-18T10:10:50;5.30;;;1.53;;
6117;SDS011;3089;48.202;11.510;2022-07-18T10:13:21;3.30;;;1.80;;
6117;SDS011;3089;48.202;11.510;2022-07-18T10:15:50;5.30;;;1.33;;
6117;SDS011;3089;48.202;11.510;2022-07-18T10:18:19;4.27;;;1.90;;
6117;SDS011;3089;48.202;11.510;2022-07-18T10:20:50;6.40;;;1.90;;
6117;SDS011;3089;48.202;11.510;2022-07-18T10:23:21;3.67;;;1.43;;
6117;SDS011;3089;48.202;11.510;2022-07-18T10:26:07;4.43;;;1.30;;
6117;SDS011;3089;48.202;11.510;2022-07-18T10:31:38;6.43;;;1.37;;
6117;SDS011;3089;48.202;11.510;2022-07-18T10:34:09;3.00;;;1.27;;
6117;SDS011;3089;48.202;11.510;2022-07-18T10:36:39;4.00;;;1.50;;
6117;SDS011;3089;48.202;11.510;2022-07-18T10:39:08;3.50;;;1.30;;
6117;SDS011;3089;48.202;11.510;2022-07-18T10:44:41;5.70;;;1.30;;
6117;SDS011;3089;48.202;11.510;2022-07-18T10:47:10;3.80;;;1.30;;
6117;SDS011;3089;48.202;11.510;2022-07-18T10:55:30;8.73;;;1.57;;
6117;SDS011;3089;48.202;11.510;2022-07-18T10:58:15;3.67;;;1.30;;
6117;SDS011;3089;48.202;11.510;2022-07-18T11:00:46;3.40;;;1.40;;
6117;SDS011;3089;48.202;11.510;2022-07-18T11:03:26;4.23;;;1.30;;
6117;SDS011;3089;48.202;11.510;2022-07-18T11:05:55;4.43;;;1.40;;
6117;SDS011;3089;48.202;11.510;2022-07-18T11:08:24;3.00;;;1.40;;
6117;SDS011;3089;48.202;11.510;2022-07-18T11:11:04;4.20;;;1.50;;
6117;SDS011;3089;48.202;11.510;2022-07-18T11:13:37;4.60;;;1.50;;
6117;SDS011;3089;48.202;11.510;2022-07-18T11:16:09;4.80;;;1.30;;
6117;SDS011;3089;48.202;11.510;2022-07-18T11:21:57;2.90;;;1.17;;
6117;SDS011;3089;48.202;11.510;2022-07-18T11:24:26;5.00;;;1.60;;
6117;SDS011;3089;48.202;11.510;2022-07-18T11:26:54;4.30;;;1.40;;
6117;SDS011;3089;48.202;11.510;2022-07-18T11:29:22;7.10;;;1.57;;
6117;SDS011;3089;48.202;11.510;2022-07-18T11:31:52;4.93;;;1.47;;
6117;SDS011;3089;48.202;11.510;2022-07-18T11:34:22;3.43;;;1.20;;
6117;SDS011;3089;48.202;11.510;2022-07-18T11:37:04;5.17;;;1.53;;
6117;SDS011;3089;48.202;11.510;2022-07-18T11:39:32;3.07;;;1.30;;
6117;SDS011;3089;48.202;11.510;2022-07-18T11:42:02;4.37;;;1.43;;
6117;SDS011;3089;48.202;11.510;2022-07-18T11:44:30;4.28;;;1.45;;
6117;SDS011;3089;48.202;11.510;2022-07-18T11:47:06;5.87;;;2.63;;
6117;SDS011;3089;48.202;11.510;2022-07-18T11:49:37;3.80;;;1.40;;
6117;SDS011;3089;48.202;11.510;2022-07-18T11:52:05;2.87;;;1.33;;
6117;SDS011;3089;48.202;11.510;2022-07-18T11:54:34;3.80;;;1.30;;
6117;SDS011;3089;48.202;11.510;2022-07-18T11:57:02;3.70;;;1.73;;
6117;SDS011;3089;48.202;11.510;2022-07-18T11:59:34;3.40;;;1.43;;
6117;SDS011;3089;48.202;11.510;2022-07-18T12:02:03;3.33;;;1.50;;
6117;SDS011;3089;48.202;11.510;2022-07-18T12:04:33;2.77;;;1.27;;
6117;SDS011;3089;48.202;11.510;2022-07-18T12:07:17;3.93;;;1.50;;
6117;SDS011;3089;48.202;11.510;2022-07-18T12:09:46;3.83;;;1.57;;
6117;SDS011;3089;48.202;11.510;2022-07-18T12:12:15;5.07;;;1.30;;
6117;SDS011;3089;48.202;11.510;2022-07-18T12:14:56;3.77;;;1.50;;
6117;SDS011;3089;48.202;11.510;2022-07-18T12:17:27;3.40;;;1.30;;
6117;SDS011;3089;48.202;11.510;2022-07-18T12:20:09;3.20;;;1.60;;
6117;SDS011;3089;48.202;11.510;2022-07-18T12:25:34;3.40;;;1.30;;
6117;SDS011;3089;48.202;11.510;2022-07-18T12:28:11;9.37;;;1.57;;
6117;SDS011;3089;48.202;11.510;2022-07-18T12:30:40;3.50;;;1.30;;
6117;SDS011;3089;48.202;11.510;2022-07-18T12:33:09;3.97;;;1.43;;
6117;SDS011;3089;48.202;11.510;2022-07-18T12:35:37;3.40;;;1.30;;
6117;SDS011;3089;48.202;11.510;2022-07-18T12:38:07;3.83;;;1.30;;
6117;SDS011;3089;48.202;11.510;2022-07-18T12:40:43;3.93;;;1.40;;
6117;SDS011;3089;48.202;11.510;2022-07-18T12:43:13;3.10;;;1.40;;
6117;SDS011;3089;48.202;11.510;2022-07-18T12:45:43;4.27;;;1.30;;
6117;SDS011;3089;48.202;11.510;2022-07-18T12:48:12;3.03;;;1.40;;
6117;SDS011;3089;48.202;11.510;2022-07-18T12:50:41;3.10;;;1.20;;
6117;SDS011;3089;48.202;11.510;2022-07-18T12:53:10;3.03;;;1.30;;
6117;SDS011;3089;48.202;11.510;2022-07-18T12:55:38;3.77;;;1.47;;
6117;SDS011;3089;48.202;11.510;2022-07-18T12:58:07;3.83;;;1.27;;
6117;SDS011;3089;48.202;11.510;2022-07-18T13:00:35;2.90;;;1.13;;
6117;SDS011;3089;48.202;11.510;2022-07-18T13:03:03;3.63;;;1.70;;
6117;SDS011;3089;48.202;11.510;2022-07-18T13:05:32;2.90;;;1.20;;
6117;SDS011;3089;48.202;11.510;2022-07-18T13:08:00;3.20;;;1.50;;
6117;SDS011;3089;48.202;11.510;2022-07-18T13:10:28;4.63;;;1.10;;
6117;SDS011;3089;48.202;11.510;2022-07-18T13:12:56;6.63;;;1.50;;
6117;SDS011;3089;48.202;11.510;2022-07-18T13:15:24;4.23;;;1.80;;
6117;SDS011;3089;48.202;11.510;2022-07-18T13:17:51;3.53;;;1.47;;
6117;SDS011;3089;48.202;11.510;2022-07-18T13:20:19;3.10;;;1.20;;
6117;SDS011;3089;48.202;11.510;2022-07-18T13:22:49;3.80;;;1.47;;
6117;SDS011;3089;48.202;11.510;2022-07-18T13:25:19;2.93;;;1.23;;
6117;SDS011;3089;48.202;11.510;2022-07-18T13:27:49;3.13;;;1.57;;
6117;SDS011;3089;48.202;11.510;2022-07-18T13:30:17;3.60;;;1.43;;
6117;SDS011;3089;48.202;11.510;2022-07-18T13:32:45;2.83;;;1.10;;
6117;SDS011;3089;48.202;11.510;2022-07-18T13:35:14;7.40;;;1.50;;
6117;SDS011;3089;48.202;11.510;2022-07-18T13:37:42;2.83;;;1.20;;
6117;SDS011;3089;48.202;11.510;2022-07-18T13:40:12;3.77;;;1.60;;
6117;SDS011;3089;48.202;11.510;2022-07-18T13:42:41;4.20;;;1.33;;
6117;SDS011;3089;48.202;11.510;2022-07-18T13:45:10;4.97;;;1.37;;
6117;SDS011;3089;48.202;11.510;2022-07-18T13:47:39;3.60;;;1.40;;
6117;SDS011;3089;48.202;11.510;2022-07-18T13:50:08;4.40;;;1.67;;
6117;SDS011;3089;48.202;11.510;2022-07-18T13:52:37;6.20;;;1.53;;
6117;SDS011;3089;48.202;11.510;2022-07-18T13:55:05;9.70;;;1.70;;
6117;SDS011;3089;48.202;11.510;2022-07-18T13:57:35;2.90;;;1.20;;
6117;SDS011;3089;48.202;11.510;2022-07-18T14:00:04;4.00;;;1.40;;
6117;SDS011;3089;48.202;11.510;2022-07-18T14:02:32;3.00;;;1.30;;
6117;SDS011;3089;48.202;11.510;2022-07-18T14:05:01;4.50;;;1.40;;
6117;SDS011;3089;48.202;11.510;2022-07-18T14:07:45;4.03;;;1.63;;
6117;SDS011;3089;48.202;11.510;2022-07-18T14:10:14;4.73;;;1.50;;
6117;SDS011;3089;48.202;11.510;2022-07-18T14:12:44;4.20;;;1.37;;
6117;SDS011;3089;48.202;11.510;2022-07-18T14:15:12;3.70;;;1.60;;
6117;SDS011;3089;48.202;11.510;2022-07-18T14:17:40;3.30;;;1.27;;
6117;SDS011;3089;48.202;11.510;2022-07-18T14:20:08;4.80;;;1.40;;
6117;SDS011;3089;48.202;11.510;2022-07-18T14:22:38;6.20;;;1.77;;
6117;SDS011;3089;48.202;11.510;2022-07-18T14:25:07;3.20;;;1.67;;
6117;SDS011;3089;48.202;11.510;2022-07-18T14:27:37;3.83;;;1.40;;
6117;SDS011;3089;48.202;11.510;2022-07-18T14:30:07;5.70;;;1.47;;
6117;SDS011;3089;48.202;11.510;2022-07-18T14:32:37;5.30;;;1.20;;
6117;SDS011;3089;48.202;11.510;2022-07-18T14:35:05;7.50;;;1.33;;
6117;SDS011;3089;48.202;11.510;2022-07-18T14:37:35;4.37;;;1.10;;
6117;SDS011;3089;48.202;11.510;2022-07-18T14:40:03;5.40;;;1.40;;
6117;SDS011;3089;48.202;11.510;2022-07-18T14:42:32;4.43;;;1.43;;
6117;SDS011;3089;48.202;11.510;2022-07-18T14:45:00;4.13;;;1.20;;
6117;SDS011;3089;48.202;11.510;2022-07-18T14:47:30;4.90;;;1.50;;
6117;SDS011;3089;48.202;11.510;2022-07-18T14:49:59;2.70;;;1.30;;
6117;SDS011;3089;48.202;11.510;2022-07-18T14:52:27;2.80;;;1.20;;
6117;SDS011;3089;48.202;11.510;2022-07-18T14:54:55;3.60;;;1.23;;
6117;SDS011;3089;48.202;11.510;2022-07-18T14:57:23;5.43;;;1.30;;
6117;SDS011;3089;48.202;11.510;2022-07-18T14:59:50;3.23;;;1.17;;
6117;SDS011;3089;48.202;11.510;2022-07-18T15:02:18;3.23;;;1.40;;
6117;SDS011;3089;48.202;11.510;2022-07-18T15:04:48;3.40;;;1.30;;
6117;SDS011;3089;48.202;11.510;2022-07-18T15:07:15;3.67;;;1.40;;
6117;SDS011;3089;48.202;11.510;2022-07-18T15:09:43;3.10;;;1.47;;
6117;SDS011;3089;48.202;11.510;2022-07-18T15:12:11;4.40;;;1.40;;
6117;SDS011;3089;48.202;11.510;2022-07-18T15:14:41;4.87;;;1.33;;
6117;SDS011;3089;48.202;11.510;2022-07-18T15:17:09;4.20;;;1.60;;
6117;SDS011;3089;48.202;11.510;2022-07-18T15:19:37;3.33;;;1.30;;
6117;SDS011;3089;48.202;11.510;2022-07-18T15:22:06;4.63;;;1.60;;
6117;SDS011;3089;48.202;11.510;2022-07-18T15:24:34;6.50;;;1.27;;
6117;SDS011;3089;48.202;11.510;2022-07-18T15:27:02;3.40;;;1.33;;
6117;SDS011;3089;48.202;11.510;2022-07-18T15:29:30;3.43;;;1.17;;
6117;SDS011;3089;48.202;11.510;2022-07-18T15:31:59;4.23;;;1.40;;
6117;SDS011;3089;48.202;11.510;2022-07-18T15:34:28;5.03;;;1.50;;
6117;SDS011;3089;48.202;11.510;2022-07-18T15:36:56;4.50;;;1.40;;